Phoenix, Arizona
Traffic Map
Current Weather Conditions
Phoenix, Arizona
Overcast
Overcast
14°
Feels Like: 14°
Wind Chill: 14° Ceiling: 5500
Heat Index: 14° Visibility: 10mi
Dew Point: Wind: 5mph
Humidity: 62% Direction: 240° (WSW)
Pressure: 30.08in Gusts: 0mph
Raw Report DataKPHX 180151Z 24004KT 10SM BKN055 OVC140 14/07 A3008 RMK AO2 SLP180 T01440072
Traffic Incident Summary
Active as of:
Severity:
Category:
InformationThere was an issue retrieving the traffic information for this location. Please try a different location or try again shortly.
Advertisements
Track Severe Weather on mobile